Time;durP1;ratioP1;P1;durP2;ratioP2;P2;SDS_P1;SDS_P2;PMS_P1;PMS_P2;Temp;Humidity;BMP_temperature;BMP_pressure;BME280_temperature;BME280_humidity;BME280_pressure;Samples;Min_cycle;Max_cycle;Signal;HPM_P1;HPM_P2
2021/04/30 00:01:43;;;;;;;5.00;3.40;;;;;;;;;;4906387;29;20262;-90
2021/04/30 00:04:56;;;;;;;7.65;3.63;;;;;;;;;;4948848;28;20039;-90
2021/04/30 00:08:10;;;;;;;;;;;;;;;;;;;;;
2021/04/30 00:11:18;;;;;;;4.78;2.67;;;;;;;;;;4950864;28;20039;-89
2021/04/30 00:14:06;;;;;;;5.35;3.00;;;;;;;;;;4940313;28;20102;-89
2021/04/30 00:19:59;;;;;;;4.85;3.70;;;;;;;;;;4937487;28;20033;-88
2021/04/30 00:22:44;;;;;;;7.95;3.70;;;;;;;;;;4934818;28;20397;-90
2021/04/30 00:25:33;;;;;;;7.95;3.72;;;;;;;;;;4936858;28;20058;-89
2021/04/30 00:28:20;;;;;;;12.27;3.92;;;;;;;;;;4945828;28;20046;-89
2021/04/30 00:31:08;;;;;;;5.07;2.88;;;;;;;;;;4938690;28;20051;-90
2021/04/30 00:33:56;;;;;;;5.60;3.22;;;;;;;;;;4946105;28;20102;-90
2021/04/30 00:36:52;;;;;;;4.43;3.25;;;;;;;;;;4932527;28;20417;-90
2021/04/30 00:39:37;;;;;;;6.20;2.95;;;;;;;;;;4946500;28;20517;-90
2021/04/30 00:42:32;;;;;;;4.43;3.60;;;;;;;;;;4940602;28;20023;-90
2021/04/30 00:45:39;;;;;;;;;;;;;;;;;;;;;
2021/04/30 01:39:59;;;;;;;;;;;;;;;;;;;;;
2021/04/30 01:43:04;;;;;;;;;;;;;;;;;;;;;
2021/04/30 01:46:09;;;;;;;;;;;;;;;;;;;;;
2021/04/30 01:49:20;;;;;;;9.88;7.25;;;;;;;;;;4953390;28;20027;-89
2021/04/30 02:03:12;;;;;;;9.15;6.53;;;;;;;;;;4774411;29;20073;-88
2021/04/30 02:06:00;;;;;;;10.23;6.93;;;;;;;;;;4879049;29;20072;-89
2021/04/30 02:29:45;;;;;;;15.68;8.50;;;;;;;;;;4830972;29;20074;-91
2021/04/30 02:33:01;;;;;;;;;;;;;;;;;;;;;
2021/04/30 02:36:10;;;;;;;12.52;8.73;;;;;;;;;;4800711;29;20150;-90
2021/04/30 02:39:00;;;;;;;11.63;8.70;;;;;;;;;;4827490;29;20025;-88
2021/04/30 02:41:53;;;;;;;13.45;10.00;;;;;;;;;;4841751;29;20121;-88
2021/04/30 02:44:49;;;;;;;;;;;;;;;;;;;;;
2021/04/30 02:47:39;;;;;;;16.63;11.65;;;;;;;;;;4941763;28;20118;-89
2021/04/30 02:50:35;;;;;;;15.20;10.10;;;;;;;;;;4934718;28;20027;-90
2021/04/30 02:53:23;;;;;;;14.77;10.63;;;;;;;;;;4944723;28;20386;-87
2021/04/30 02:56:18;;;;;;;14.82;10.60;;;;;;;;;;4954167;28;20598;-89
2021/04/30 02:59:15;;;;;;;14.30;11.55;;;;;;;;;;4943493;28;20037;-89
2021/04/30 03:02:19;;;;;;;;;;;;;;;;;;;;;
2021/04/30 03:05:10;;;;;;;16.67;10.60;;;;;;;;;;4946698;28;20022;-89
2021/04/30 03:07:56;;;;;;;12.85;10.52;;;;;;;;;;4951573;28;20035;-88
2021/04/30 03:10:41;;;;;;;15.38;12.40;;;;;;;;;;4935643;29;20035;-88
2021/04/30 03:13:49;;;;;;;15.65;11.35;;;;;;;;;;4936199;28;20027;-89
2021/04/30 03:16:45;;;;;;;13.02;10.43;;;;;;;;;;4948685;28;20031;-90
2021/04/30 03:20:04;;;;;;;;;;;;;;;;;;;;;
2021/04/30 03:26:10;;;;;;;;;;;;;;;;;;;;;
2021/04/30 03:29:09;;;;;;;;;;;;;;;;;;;;;
2021/04/30 03:32:14;;;;;;;;;;;;;;;;;;;;;
2021/04/30 03:41:50;;;;;;;14.88;10.77;;;;;;;;;;4867458;29;20068;-88
2021/04/30 03:44:37;;;;;;;12.70;9.43;;;;;;;;;;4932589;28;20277;-87
2021/04/30 03:47:25;;;;;;;11.95;9.18;;;;;;;;;;4940656;28;20501;-86
2021/04/30 03:50:10;;;;;;;13.48;9.48;;;;;;;;;;4933297;28;20031;-88
2021/04/30 03:52:56;;;;;;;12.95;10.32;;;;;;;;;;4934807;28;20125;-88
2021/04/30 03:55:49;;;;;;;12.63;8.98;;;;;;;;;;4936187;28;20020;-89
2021/04/30 03:58:40;;;;;;;12.48;9.10;;;;;;;;;;4954776;28;20039;-89
2021/04/30 04:01:33;;;;;;;14.05;10.40;;;;;;;;;;4947183;28;20026;-88
2021/04/30 04:08:08;;;;;;;12.48;9.07;;;;;;;;;;4890043;29;20056;-88
2021/04/30 04:10:56;;;;;;;13.02;9.95;;;;;;;;;;4934797;28;20027;-89
2021/04/30 04:20:55;;;;;;;13.30;9.10;;;;;;;;;;4833528;29;20061;-89
2021/04/30 04:23:45;;;;;;;14.32;8.98;;;;;;;;;;4874940;29;20064;-89
2021/04/30 04:26:31;;;;;;;13.50;10.30;;;;;;;;;;4864228;29;20029;-89
2021/04/30 04:29:16;;;;;;;11.27;8.95;;;;;;;;;;4936167;28;20019;-90
2021/04/30 04:32:11;;;;;;;11.98;9.15;;;;;;;;;;4943419;28;20549;-88
2021/04/30 04:45:44;;;;;;;13.18;9.25;;;;;;;;;;4949939;28;20059;-88
2021/04/30 04:48:33;;;;;;;14.65;9.75;;;;;;;;;;4929236;28;20042;-88
2021/04/30 04:55:17;;;;;;;;;;;;;;;;;;;;;
2021/04/30 05:07:41;;;;;;;15.73;10.02;;;;;;;;;;4713541;30;20098;-88
2021/04/30 05:13:48;;;;;;;14.05;10.00;;;;;;;;;;4915996;28;20035;-88
2021/04/30 05:16:33;;;;;;;11.98;9.32;;;;;;;;;;4935679;28;20030;-84
2021/04/30 06:01:12;;;;;;;16.10;10.57;;;;;;;;;;5343356;23;19931;-86
2021/04/30 06:03:58;;;;;;;15.50;10.38;;;;;;;;;;4937868;29;20693;-87
2021/04/30 06:06:49;;;;;;;14.15;10.18;;;;;;;;;;4936839;28;20037;-90
2021/04/30 06:09:37;;;;;;;13.88;10.48;;;;;;;;;;4933753;28;20023;-88
2021/04/30 06:12:22;;;;;;;14.50;10.90;;;;;;;;;;4931741;29;20486;-90
2021/04/30 06:15:08;;;;;;;15.77;10.57;;;;;;;;;;4927136;28;20035;-92
2021/04/30 06:17:53;;;;;;;13.73;9.75;;;;;;;;;;4943704;28;20042;-86
2021/04/30 06:20:38;;;;;;;14.52;10.77;;;;;;;;;;4939966;28;20023;-89
2021/04/30 06:23:24;;;;;;;27.25;20.45;;;;;;;;;;4932549;28;20097;-89
2021/04/30 06:26:09;;;;;;;26.92;20.75;;;;;;;;;;4923809;28;20394;-88
2021/04/30 06:28:54;;;;;;;14.25;10.18;;;;;;;;;;4942964;28;20073;-89
2021/04/30 06:31:40;;;;;;;12.20;9.73;;;;;;;;;;4932012;29;20697;-88
2021/04/30 06:34:26;;;;;;;13.77;9.60;;;;;;;;;;4937632;28;20043;-87
2021/04/30 06:37:12;;;;;;;12.10;9.25;;;;;;;;;;4944604;28;20038;-92
2021/04/30 06:39:58;;;;;;;12.48;9.35;;;;;;;;;;4947823;28;20045;-91
2021/04/30 06:42:44;;;;;;;16.58;9.32;;;;;;;;;;4951880;28;20485;-92
2021/04/30 06:45:29;;;;;;;15.60;10.40;;;;;;;;;;4938131;28;20019;-92
2021/04/30 06:48:15;;;;;;;17.00;10.38;;;;;;;;;;4927337;28;20007;-91
2021/04/30 06:51:01;;;;;;;11.93;8.18;;;;;;;;;;4947695;28;20015;-90
2021/04/30 06:53:50;;;;;;;14.52;9.68;;;;;;;;;;4934318;28;20030;-91
2021/04/30 06:59:10;;;;;;;13.73;9.90;;;;;;;;;;5073404;23;20398;-88
2021/04/30 07:01:56;;;;;;;12.38;9.00;;;;;;;;;;4959456;28;20113;-87
2021/04/30 07:04:41;;;;;;;15.02;9.52;;;;;;;;;;4951923;28;20027;-88
2021/04/30 07:07:26;;;;;;;13.25;9.43;;;;;;;;;;4950210;28;20167;-89
2021/04/30 07:10:12;;;;;;;15.13;9.80;;;;;;;;;;4954651;28;20019;-88
2021/04/30 07:12:57;;;;;;;17.23;9.52;;;;;;;;;;4956035;28;20027;-89
2021/04/30 07:16:09;;;;;;;15.18;9.30;;;;;;;;;;4957753;28;20026;-89
2021/04/30 07:18:57;;;;;;;12.98;9.10;;;;;;;;;;4950492;28;20489;-88
2021/04/30 07:21:44;;;;;;;11.18;8.82;;;;;;;;;;4952720;28;20023;-88
2021/04/30 07:24:33;;;;;;;13.20;9.60;;;;;;;;;;4952268;28;20026;-90
2021/04/30 07:27:18;;;;;;;29.67;20.05;;;;;;;;;;4956075;28;20026;-90
2021/04/30 07:30:04;;;;;;;13.90;10.77;;;;;;;;;;4950136;28;20552;-90
2021/04/30 07:32:50;;;;;;;13.13;9.13;;;;;;;;;;4950344;28;20366;-89
2021/04/30 07:35:37;;;;;;;15.68;10.02;;;;;;;;;;4955643;28;20046;-87
2021/04/30 07:38:23;;;;;;;14.05;9.85;;;;;;;;;;4953165;28;20069;-89
2021/04/30 07:41:09;;;;;;;12.55;8.98;;;;;;;;;;4953311;28;20570;-88
2021/04/30 07:43:57;;;;;;;17.88;10.23;;;;;;;;;;4948323;28;20029;-89
2021/04/30 07:46:42;;;;;;;12.70;9.95;;;;;;;;;;4953465;28;20018;-88
2021/04/30 07:49:27;;;;;;;13.02;9.27;;;;;;;;;;4951218;28;20031;-87
2021/04/30 07:52:15;;;;;;;16.23;10.63;;;;;;;;;;4953549;28;20023;-89
2021/04/30 07:55:01;;;;;;;11.70;8.73;;;;;;;;;;4946593;28;20665;-88
2021/04/30 07:57:46;;;;;;;13.18;9.13;;;;;;;;;;4955795;28;20065;-89
2021/04/30 08:00:32;;;;;;;13.57;9.30;;;;;;;;;;4957623;28;20062;-87
2021/04/30 08:03:19;;;;;;;16.95;10.02;;;;;;;;;;4954668;28;20034;-89
2021/04/30 08:06:05;;;;;;;11.57;8.32;;;;;;;;;;4957345;28;20034;-88
2021/04/30 08:23:22;;;;;;;;;;;;;;;;;;;;;
2021/04/30 09:13:23;;;;;;;16.17;10.43;;;;;;;;;;5668238;23;20054;-87
2021/04/30 09:30:13;;;;;;;13.40;10.65;;;;;;;;;;4922738;29;20052;-92
2021/04/30 10:07:41;;;;;;;15.43;10.55;;;;;;;;;;5590013;23;20520;-87
2021/04/30 10:10:26;;;;;;;15.07;11.93;;;;;;;;;;4941747;28;20031;-89
2021/04/30 10:13:30;;;;;;;;;;;;;;;;;;;;;
2021/04/30 10:16:37;;;;;;;15.75;11.48;;;;;;;;;;4945814;28;20093;-90
2021/04/30 10:19:38;;;;;;;18.55;12.60;;;;;;;;;;4959646;28;20397;-87
2021/04/30 10:22:50;;;;;;;19.83;12.55;;;;;;;;;;4935803;28;20038;-89
2021/04/30 10:25:33;;;;;;;17.10;13.10;;;;;;;;;;4949451;28;20504;-82
2021/04/30 10:51:20;;;;;;;22.40;18.58;;;;;;;;;;4820629;29;20267;-88
2021/04/30 11:16:23;;;;;;;21.42;17.27;;;;;;;;;;5306398;23;20066;-89
2021/04/30 11:30:27;;;;;;;;;;;;;;;;;;;;;
2021/04/30 11:43:19;;;;;;;22.55;17.80;;;;;;;;;;4781131;30;20321;-89
2021/04/30 11:53:34;;;;;;;21.50;17.40;;;;;;;;;;4756968;30;20035;-93
2021/04/30 11:56:46;;;;;;;18.70;15.80;;;;;;;;;;4737498;30;20016;-90
2021/04/30 12:36:56;;;;;;;18.93;13.60;;;;;;;;;;5575615;23;20035;-88
2021/04/30 12:39:45;;;;;;;15.35;11.93;;;;;;;;;;4950990;28;20278;-85
2021/04/30 12:42:44;;;;;;;16.77;13.13;;;;;;;;;;4938140;28;20034;-85
2021/04/30 12:45:32;;;;;;;17.58;13.82;;;;;;;;;;4929494;28;20027;-87
2021/04/30 12:48:17;;;;;;;19.33;14.48;;;;;;;;;;4946824;28;20084;-87
2021/04/30 12:51:03;;;;;;;18.52;13.80;;;;;;;;;;4933799;28;20027;-86
2021/04/30 12:53:48;;;;;;;17.73;14.30;;;;;;;;;;4943477;28;20022;-88
2021/04/30 12:56:34;;;;;;;17.75;14.10;;;;;;;;;;4948753;28;20035;-86
2021/04/30 12:59:21;;;;;;;28.52;21.58;;;;;;;;;;4912240;29;20028;-87
2021/04/30 13:02:06;;;;;;;17.27;13.40;;;;;;;;;;4909555;29;20027;-85
2021/04/30 13:04:52;;;;;;;19.23;13.73;;;;;;;;;;4918106;29;20066;-86
2021/04/30 13:07:37;;;;;;;14.90;11.68;;;;;;;;;;4939682;29;20029;-85
2021/04/30 13:10:26;;;;;;;20.38;13.93;;;;;;;;;;4914152;29;20018;-87
2021/04/30 13:13:12;;;;;;;14.32;12.45;;;;;;;;;;4921766;29;20032;-89
2021/04/30 13:15:58;;;;;;;18.60;13.55;;;;;;;;;;4919831;29;20148;-86
2021/04/30 13:18:43;;;;;;;17.67;12.27;;;;;;;;;;4923960;29;20039;-90
2021/04/30 13:21:32;;;;;;;18.05;14.77;;;;;;;;;;4919925;29;20102;-84
2021/04/30 13:24:21;;;;;;;19.13;13.32;;;;;;;;;;4907710;29;20032;-87
2021/04/30 13:27:08;;;;;;;19.23;14.43;;;;;;;;;;4916684;29;20048;-84
2021/04/30 13:29:54;;;;;;;18.77;14.43;;;;;;;;;;4915095;29;20032;-88
2021/04/30 13:32:39;;;;;;;14.98;12.48;;;;;;;;;;4919208;29;20095;-87
2021/04/30 13:35:26;;;;;;;18.02;13.50;;;;;;;;;;4909722;29;20047;-85
2021/04/30 13:38:17;;;;;;;17.15;13.65;;;;;;;;;;4935278;28;20035;-85
2021/04/30 13:41:10;;;;;;;17.00;14.20;;;;;;;;;;4934487;29;20093;-87
2021/04/30 13:44:12;;;;;;;17.70;14.30;;;;;;;;;;4932842;28;20031;-85
2021/04/30 13:46:58;;;;;;;17.42;14.35;;;;;;;;;;4931546;28;20039;-85
2021/04/30 13:49:47;;;;;;;40.30;31.80;;;;;;;;;;4935392;29;20082;-85
2021/04/30 13:52:33;;;;;;;20.33;18.10;;;;;;;;;;4945520;28;20031;-85
2021/04/30 13:55:19;;;;;;;16.42;12.50;;;;;;;;;;4940102;28;20031;-87
2021/04/30 13:58:04;;;;;;;15.45;11.70;;;;;;;;;;4941267;28;20026;-83
2021/04/30 14:00:49;;;;;;;16.70;11.82;;;;;;;;;;4939429;28;20026;-84
2021/04/30 14:03:35;;;;;;;19.40;15.07;;;;;;;;;;4947276;28;20047;-83
2021/04/30 14:06:20;;;;;;;33.25;24.45;;;;;;;;;;4934672;28;20067;-84
2021/04/30 14:09:05;;;;;;;23.88;18.58;;;;;;;;;;4929129;28;20023;-84
2021/04/30 14:11:52;;;;;;;16.88;13.70;;;;;;;;;;4938611;28;20106;-84
2021/04/30 14:14:38;;;;;;;15.70;12.80;;;;;;;;;;4933369;29;20035;-83
2021/04/30 14:17:23;;;;;;;18.77;13.45;;;;;;;;;;4938711;28;20435;-83
2021/04/30 14:20:09;;;;;;;18.75;14.85;;;;;;;;;;4953643;28;20019;-89
2021/04/30 14:22:55;;;;;;;16.55;13.68;;;;;;;;;;4949594;28;20118;-91
2021/04/30 14:25:40;;;;;;;17.55;15.05;;;;;;;;;;4967599;28;20034;-89
2021/04/30 14:28:25;;;;;;;17.35;14.15;;;;;;;;;;4957131;28;20042;-89
2021/04/30 14:31:12;;;;;;;16.65;14.07;;;;;;;;;;4935843;28;20046;-87
2021/04/30 14:33:57;;;;;;;15.52;13.02;;;;;;;;;;4925600;28;20023;-87
2021/04/30 14:36:43;;;;;;;17.67;14.43;;;;;;;;;;4928304;29;20276;-82
2021/04/30 14:39:28;;;;;;;19.40;15.80;;;;;;;;;;4937748;28;20114;-88
2021/04/30 14:42:14;;;;;;;15.70;12.02;;;;;;;;;;4933194;29;20165;-87
2021/04/30 14:45:03;;;;;;;16.38;13.40;;;;;;;;;;4936211;28;20016;-92
2021/04/30 14:47:49;;;;;;;19.48;14.40;;;;;;;;;;4947388;28;20549;-88
2021/04/30 14:50:35;;;;;;;17.83;14.20;;;;;;;;;;4946136;28;20019;-88
2021/04/30 14:53:21;;;;;;;19.40;14.75;;;;;;;;;;4922665;28;20135;-91
2021/04/30 14:56:16;;;;;;;19.40;14.77;;;;;;;;;;4937984;28;20031;-91
2021/04/30 14:59:02;;;;;;;19.35;14.82;;;;;;;;;;4926130;28;20402;-88
2021/04/30 15:01:47;;;;;;;19.15;14.93;;;;;;;;;;4947317;28;20014;-93
2021/04/30 15:04:32;;;;;;;18.33;15.13;;;;;;;;;;4957562;28;20513;-90
2021/04/30 15:07:18;;;;;;;18.30;14.68;;;;;;;;;;4959220;28;20018;-91
2021/04/30 15:10:03;;;;;;;17.13;13.88;;;;;;;;;;4943431;28;20024;-88
2021/04/30 15:12:48;;;;;;;18.05;14.75;;;;;;;;;;4957304;28;20027;-92
2021/04/30 15:15:56;;;;;;;16.92;13.23;;;;;;;;;;5490080;23;20034;-92
2021/04/30 15:31:18;;;;;;;19.20;12.70;;;;;;;;;;4967427;28;20030;-83
2021/04/30 15:34:09;;;;;;;17.92;15.05;;;;;;;;;;4942125;28;20161;-86
2021/04/30 15:36:57;;;;;;;17.48;14.43;;;;;;;;;;4948150;28;20031;-86
2021/04/30 15:39:42;;;;;;;17.05;13.32;;;;;;;;;;4953155;28;20028;-89
2021/04/30 15:42:27;;;;;;;15.70;12.48;;;;;;;;;;4955806;28;20009;-87
2021/04/30 15:45:13;;;;;;;19.23;15.88;;;;;;;;;;4952796;28;20026;-89
2021/04/30 15:47:58;;;;;;;17.13;13.35;;;;;;;;;;4953239;28;20055;-85
2021/04/30 15:50:43;;;;;;;19.25;15.07;;;;;;;;;;4950612;28;20244;-84
2021/04/30 15:53:29;;;;;;;18.88;14.48;;;;;;;;;;4944550;28;20059;-88
2021/04/30 15:56:14;;;;;;;17.48;15.05;;;;;;;;;;4957141;28;20420;-89
2021/04/30 15:58:59;;;;;;;18.17;15.45;;;;;;;;;;4944517;29;20027;-89
2021/04/30 16:01:45;;;;;;;19.80;16.17;;;;;;;;;;4936104;28;20051;-87
2021/04/30 16:04:30;;;;;;;18.00;13.88;;;;;;;;;;4966070;28;20096;-89
2021/04/30 16:07:15;;;;;;;18.33;16.27;;;;;;;;;;4953341;28;20118;-90
2021/04/30 16:10:01;;;;;;;17.75;14.75;;;;;;;;;;4950740;28;20027;-88
2021/04/30 16:12:47;;;;;;;20.48;15.18;;;;;;;;;;4935571;28;20216;-87
2021/04/30 16:15:32;;;;;;;19.73;15.02;;;;;;;;;;4955765;28;20018;-87
2021/04/30 16:18:26;;;;;;;19.33;14.60;;;;;;;;;;4944050;28;20036;-88
2021/04/30 16:21:12;;;;;;;18.00;15.57;;;;;;;;;;4950861;28;20029;-88
2021/04/30 16:23:57;;;;;;;18.33;15.32;;;;;;;;;;4961877;28;20054;-88
2021/04/30 16:26:42;;;;;;;20.75;16.88;;;;;;;;;;4953155;28;20046;-87
2021/04/30 16:29:27;;;;;;;21.35;16.02;;;;;;;;;;4953474;28;20062;-88
2021/04/30 16:32:12;;;;;;;20.98;15.88;;;;;;;;;;4949302;28;20667;-88
2021/04/30 16:34:58;;;;;;;22.10;16.27;;;;;;;;;;4954932;28;20034;-89
2021/04/30 16:37:44;;;;;;;21.05;15.13;;;;;;;;;;4953773;28;20018;-88
2021/04/30 16:40:29;;;;;;;20.58;16.60;;;;;;;;;;4956133;28;20030;-86
2021/04/30 16:43:14;;;;;;;22.17;17.30;;;;;;;;;;4952249;28;20521;-87
2021/04/30 16:46:14;;;;;;;16.58;13.35;;;;;;;;;;4947995;28;20034;-87
2021/04/30 16:48:59;;;;;;;17.40;13.50;;;;;;;;;;4951279;28;20018;-87
2021/04/30 16:51:45;;;;;;;18.52;14.80;;;;;;;;;;4950253;28;20077;-87
2021/04/30 16:54:36;;;;;;;22.02;17.20;;;;;;;;;;4953466;28;20057;-87
2021/04/30 16:57:21;;;;;;;19.27;15.98;;;;;;;;;;4952662;28;20027;-85
2021/04/30 17:00:10;;;;;;;20.33;15.07;;;;;;;;;;4949841;28;20053;-92
2021/04/30 17:02:55;;;;;;;20.88;17.27;;;;;;;;;;4939489;28;20081;-90
2021/04/30 17:05:40;;;;;;;21.58;16.55;;;;;;;;;;4958913;28;20449;-91
2021/04/30 17:08:29;;;;;;;22.85;16.35;;;;;;;;;;4954455;28;20031;-95
2021/04/30 17:11:17;;;;;;;22.55;16.90;;;;;;;;;;4957637;28;20019;-89
2021/04/30 17:14:02;;;;;;;20.63;17.00;;;;;;;;;;4957367;28;20097;-86
2021/04/30 17:16:47;;;;;;;21.55;15.90;;;;;;;;;;4948169;28;20050;-87
2021/04/30 17:19:33;;;;;;;20.27;16.13;;;;;;;;;;4943114;28;20107;-88
2021/04/30 17:22:18;;;;;;;22.27;16.30;;;;;;;;;;4947986;28;20477;-87
2021/04/30 17:25:03;;;;;;;22.90;18.02;;;;;;;;;;4956662;28;20046;-88
2021/04/30 17:27:51;;;;;;;22.02;18.45;;;;;;;;;;4948355;28;20033;-86
2021/04/30 17:30:36;;;;;;;26.25;19.20;;;;;;;;;;4943098;28;20117;-87
2021/04/30 17:33:22;;;;;;;24.20;17.92;;;;;;;;;;4952196;28;20469;-86
2021/04/30 17:36:07;;;;;;;23.10;17.23;;;;;;;;;;4943157;28;20031;-90
2021/04/30 17:38:53;;;;;;;20.63;17.13;;;;;;;;;;4944353;28;20038;-86
2021/04/30 17:41:38;;;;;;;24.55;17.33;;;;;;;;;;4945711;28;20359;-87
2021/04/30 17:44:23;;;;;;;24.02;18.65;;;;;;;;;;4949287;28;20492;-87
2021/04/30 17:47:12;;;;;;;20.25;16.08;;;;;;;;;;4946243;28;20150;-87
2021/04/30 17:49:57;;;;;;;22.33;19.40;;;;;;;;;;4950017;28;20030;-86
2021/04/30 17:52:42;;;;;;;25.52;21.27;;;;;;;;;;4958568;28;20046;-87
2021/04/30 17:55:27;;;;;;;26.30;22.08;;;;;;;;;;4946930;28;20023;-88
2021/04/30 17:58:13;;;;;;;25.20;21.10;;;;;;;;;;4946857;28;20037;-88
2021/04/30 18:00:58;;;;;;;22.63;18.40;;;;;;;;;;4955248;28;20493;-89
2021/04/30 18:03:43;;;;;;;29.45;22.33;;;;;;;;;;4954547;28;20135;-87
2021/04/30 18:06:29;;;;;;;25.05;20.45;;;;;;;;;;4948400;28;20117;-87
2021/04/30 18:09:14;;;;;;;24.60;21.10;;;;;;;;;;4952755;28;20363;-87
2021/04/30 18:11:59;;;;;;;26.52;19.83;;;;;;;;;;4952225;28;20023;-86
2021/04/30 18:14:44;;;;;;;35.97;24.40;;;;;;;;;;4968738;28;20023;-88
2021/04/30 18:17:29;;;;;;;24.25;18.38;;;;;;;;;;4944386;28;20482;-89
2021/04/30 18:20:15;;;;;;;23.42;19.30;;;;;;;;;;4955998;28;20034;-85
2021/04/30 18:23:01;;;;;;;35.70;24.70;;;;;;;;;;4946330;28;20105;-87
2021/04/30 18:25:46;;;;;;;34.75;24.95;;;;;;;;;;4959146;28;20086;-86
2021/04/30 18:28:34;;;;;;;31.13;23.42;;;;;;;;;;4957595;28;20030;-86
2021/04/30 18:31:20;;;;;;;31.25;23.58;;;;;;;;;;4935127;28;20023;-86
2021/04/30 18:34:05;;;;;;;41.78;26.90;;;;;;;;;;4954118;28;20019;-87
2021/04/30 18:36:50;;;;;;;31.92;25.73;;;;;;;;;;4962078;28;20430;-87
2021/04/30 18:39:35;;;;;;;29.38;24.55;;;;;;;;;;4954454;28;20926;-90
2021/04/30 18:42:46;;;;;;;35.78;24.95;;;;;;;;;;4948580;28;20428;-87
2021/04/30 18:45:31;;;;;;;30.35;24.45;;;;;;;;;;4960199;28;20022;-87
2021/04/30 18:48:17;;;;;;;30.35;25.83;;;;;;;;;;4954561;28;20124;-87
2021/04/30 18:51:07;;;;;;;31.83;25.63;;;;;;;;;;4965113;28;20027;-88
2021/04/30 18:53:53;;;;;;;30.75;23.63;;;;;;;;;;4951046;28;20034;-88
2021/04/30 18:56:38;;;;;;;33.47;27.23;;;;;;;;;;4946611;28;20113;-87
2021/04/30 18:59:23;;;;;;;32.53;26.15;;;;;;;;;;4950718;28;20027;-85
2021/04/30 19:02:08;;;;;;;32.72;27.00;;;;;;;;;;4949369;28;20026;-88
2021/04/30 19:04:54;;;;;;;33.60;25.45;;;;;;;;;;4947886;28;20030;-87
2021/04/30 19:07:39;;;;;;;32.85;27.25;;;;;;;;;;4961868;28;20481;-87
2021/04/30 19:10:26;;;;;;;30.65;23.90;;;;;;;;;;4947361;28;20121;-90
2021/04/30 19:13:12;;;;;;;34.03;26.90;;;;;;;;;;4937044;28;20030;-91
2021/04/30 19:15:58;;;;;;;31.25;26.42;;;;;;;;;;4957154;28;20026;-90
2021/04/30 19:18:45;;;;;;;34.28;28.73;;;;;;;;;;4957764;28;20109;-93
2021/04/30 19:21:30;;;;;;;38.35;29.73;;;;;;;;;;4963310;28;20791;-92
2021/04/30 19:24:18;;;;;;;32.53;25.15;;;;;;;;;;4961937;28;20039;-91
2021/04/30 19:27:04;;;;;;;29.20;26.08;;;;;;;;;;4953354;28;20094;-91
2021/04/30 19:29:49;;;;;;;36.83;29.30;;;;;;;;;;4955227;28;20022;-87
2021/04/30 19:32:38;;;;;;;29.85;25.27;;;;;;;;;;4960015;28;20039;-91
2021/04/30 19:35:25;;;;;;;30.77;25.85;;;;;;;;;;4955979;28;20104;-92
2021/04/30 19:38:11;;;;;;;38.28;29.88;;;;;;;;;;4958019;28;20658;-88
2021/04/30 19:40:56;;;;;;;40.70;31.98;;;;;;;;;;4955618;28;20078;-88
2021/04/30 19:43:41;;;;;;;35.85;29.55;;;;;;;;;;4961372;28;20125;-87
2021/04/30 19:46:26;;;;;;;36.10;30.75;;;;;;;;;;4957973;28;20062;-89
2021/04/30 19:49:13;;;;;;;46.00;35.35;;;;;;;;;;4947187;28;20109;-86
2021/04/30 19:51:58;;;;;;;43.88;34.08;;;;;;;;;;4948091;28;20718;-89
2021/04/30 19:54:46;;;;;;;37.00;27.70;;;;;;;;;;4956800;28;20039;-89
2021/04/30 19:57:31;;;;;;;31.80;26.40;;;;;;;;;;4953702;28;20038;-90
2021/04/30 20:00:18;;;;;;;32.33;27.17;;;;;;;;;;4945857;28;20024;-88
2021/04/30 20:03:03;;;;;;;39.22;31.08;;;;;;;;;;4944965;28;20085;-89
2021/04/30 20:05:49;;;;;;;37.67;29.73;;;;;;;;;;4960189;28;20019;-88
2021/04/30 20:08:37;;;;;;;40.00;30.70;;;;;;;;;;4975924;28;20027;-89
2021/04/30 20:11:24;;;;;;;32.95;27.88;;;;;;;;;;4963441;28;20075;-90
2021/04/30 20:14:09;;;;;;;37.17;29.98;;;;;;;;;;4964731;28;20046;-88
2021/04/30 20:16:54;;;;;;;37.83;31.85;;;;;;;;;;4953514;28;21073;-91
2021/04/30 20:19:40;;;;;;;35.85;29.77;;;;;;;;;;4960699;28;20030;-90
2021/04/30 20:22:25;;;;;;;36.25;31.52;;;;;;;;;;4960363;28;20057;-91
2021/04/30 20:25:12;;;;;;;42.97;32.92;;;;;;;;;;4953601;28;20047;-89
2021/04/30 20:27:57;;;;;;;41.15;33.47;;;;;;;;;;4934524;28;20096;-89
2021/04/30 20:30:42;;;;;;;44.15;34.45;;;;;;;;;;4959872;28;20015;-89
2021/04/30 20:33:28;;;;;;;38.90;31.15;;;;;;;;;;4955479;28;20050;-89
2021/04/30 20:36:13;;;;;;;42.92;32.85;;;;;;;;;;4956224;28;20504;-90
2021/04/30 20:38:58;;;;;;;38.42;32.22;;;;;;;;;;4950490;28;20018;-90
2021/04/30 20:41:44;;;;;;;43.45;32.67;;;;;;;;;;4969329;28;20030;-89
2021/04/30 20:44:29;;;;;;;36.53;31.00;;;;;;;;;;4965424;28;20031;-87
2021/04/30 20:47:15;;;;;;;39.83;30.80;;;;;;;;;;4953610;28;20101;-92
2021/04/30 20:50:01;;;;;;;33.05;27.08;;;;;;;;;;4959905;28;20038;-90
2021/04/30 20:52:46;;;;;;;32.70;27.23;;;;;;;;;;4949728;28;20077;-91
2021/04/30 20:55:31;;;;;;;36.60;27.63;;;;;;;;;;4956738;28;20022;-88
2021/04/30 20:58:17;;;;;;;34.03;29.02;;;;;;;;;;4957733;28;20515;-89
2021/04/30 21:01:02;;;;;;;37.80;31.40;;;;;;;;;;4957539;28;20061;-89
2021/04/30 21:03:47;;;;;;;40.55;33.08;;;;;;;;;;4954364;28;20038;-90
2021/04/30 21:06:33;;;;;;;37.50;29.58;;;;;;;;;;4956740;28;20065;-90
2021/04/30 21:09:21;;;;;;;38.08;29.85;;;;;;;;;;4957237;28;20105;-92
2021/04/30 21:12:14;;;;;;;35.88;30.40;;;;;;;;;;4962869;28;20023;-90
2021/04/30 21:15:01;;;;;;;39.15;29.85;;;;;;;;;;4958007;28;20045;-90
2021/04/30 21:17:47;;;;;;;35.63;28.85;;;;;;;;;;4943045;28;20031;-90
2021/04/30 21:20:42;;;;;;;37.60;30.38;;;;;;;;;;4954844;28;20439;-90
2021/04/30 21:23:31;;;;;;;41.97;32.05;;;;;;;;;;4952337;28;20046;-94
2021/04/30 21:26:16;;;;;;;34.63;28.55;;;;;;;;;;4941066;28;20108;-91
2021/04/30 21:29:02;;;;;;;41.00;32.95;;;;;;;;;;4965934;28;20023;-90
2021/04/30 21:31:47;;;;;;;38.08;30.67;;;;;;;;;;4958446;28;20022;-93
2021/04/30 21:34:36;;;;;;;50.60;38.05;;;;;;;;;;4953500;28;20038;-89
2021/04/30 21:37:21;;;;;;;45.85;35.53;;;;;;;;;;4959000;28;20027;-90
2021/04/30 21:40:07;;;;;;;36.65;30.08;;;;;;;;;;4951301;28;20043;-89
2021/04/30 21:42:54;;;;;;;36.05;28.27;;;;;;;;;;4953879;28;20033;-89
2021/04/30 21:45:39;;;;;;;36.53;29.23;;;;;;;;;;4955582;28;20056;-86
2021/04/30 21:48:26;;;;;;;40.45;31.48;;;;;;;;;;4960238;28;20014;-86
2021/04/30 21:51:11;;;;;;;35.83;28.90;;;;;;;;;;4951968;28;20390;-87
2021/04/30 21:53:57;;;;;;;39.88;31.48;;;;;;;;;;4953739;28;20442;-86
2021/04/30 21:56:42;;;;;;;45.17;33.53;;;;;;;;;;4948881;28;20061;-87
2021/04/30 21:59:28;;;;;;;42.70;34.00;;;;;;;;;;4957913;28;20023;-87
2021/04/30 22:02:13;;;;;;;40.00;30.98;;;;;;;;;;4959656;28;20101;-87
2021/04/30 22:05:01;;;;;;;36.55;30.30;;;;;;;;;;4949464;28;20026;-87
2021/04/30 22:07:50;;;;;;;37.40;31.10;;;;;;;;;;4947006;28;20022;-87
2021/04/30 22:10:35;;;;;;;44.35;33.67;;;;;;;;;;4950877;28;20393;-86
2021/04/30 22:13:22;;;;;;;37.20;30.58;;;;;;;;;;4960155;28;20026;-86
2021/04/30 22:16:07;;;;;;;34.28;28.55;;;;;;;;;;4961480;28;20023;-87
2021/04/30 22:18:53;;;;;;;46.13;33.42;;;;;;;;;;4960562;28;20030;-89
2021/04/30 22:21:38;;;;;;;43.45;34.25;;;;;;;;;;4945854;28;20015;-87
2021/04/30 22:24:23;;;;;;;42.42;33.35;;;;;;;;;;4969957;28;20457;-85
2021/04/30 22:27:08;;;;;;;41.17;32.60;;;;;;;;;;4953263;28;20059;-87
2021/04/30 22:29:54;;;;;;;39.42;31.25;;;;;;;;;;4958304;28;20488;-86
2021/04/30 22:32:39;;;;;;;39.08;30.30;;;;;;;;;;4951549;28;20371;-86
2021/04/30 22:35:24;;;;;;;35.80;29.33;;;;;;;;;;4942601;28;20553;-87
2021/04/30 22:38:09;;;;;;;37.20;30.20;;;;;;;;;;4953389;28;20134;-87
2021/04/30 22:40:55;;;;;;;36.78;29.98;;;;;;;;;;4957963;28;20065;-87
2021/04/30 22:43:40;;;;;;;38.58;30.92;;;;;;;;;;4970031;28;20160;-86
2021/04/30 22:46:25;;;;;;;43.10;33.80;;;;;;;;;;4949991;28;20114;-85
2021/04/30 22:49:10;;;;;;;41.55;33.25;;;;;;;;;;4956070;28;20106;-86
2021/04/30 22:51:56;;;;;;;40.50;31.45;;;;;;;;;;4946438;28;20027;-86
2021/04/30 22:54:41;;;;;;;37.05;29.40;;;;;;;;;;4952491;28;20367;-84
2021/04/30 22:57:27;;;;;;;48.38;36.45;;;;;;;;;;4948188;28;20061;-85
2021/04/30 23:00:12;;;;;;;35.90;28.25;;;;;;;;;;4953589;28;20038;-85
2021/04/30 23:02:57;;;;;;;37.03;31.65;;;;;;;;;;4957035;28;20026;-86
2021/04/30 23:05:43;;;;;;;40.13;30.73;;;;;;;;;;4953789;28;20029;-86
2021/04/30 23:08:28;;;;;;;36.35;29.08;;;;;;;;;;4955506;28;20367;-86
2021/04/30 23:11:13;;;;;;;42.22;34.17;;;;;;;;;;4950690;28;20011;-86
2021/04/30 23:14:17;;;;;;;36.88;29.20;;;;;;;;;;4951768;28;20025;-85
2021/04/30 23:17:02;;;;;;;38.58;31.30;;;;;;;;;;4933565;28;20022;-88
2021/04/30 23:19:47;;;;;;;42.17;30.98;;;;;;;;;;4958690;28;20031;-88
2021/04/30 23:22:33;;;;;;;37.13;28.08;;;;;;;;;;4957833;28;20026;-85
2021/04/30 23:25:18;;;;;;;38.58;31.65;;;;;;;;;;4959189;28;20081;-86
2021/04/30 23:28:04;;;;;;;40.05;30.45;;;;;;;;;;4948469;28;20480;-84
2021/04/30 23:30:49;;;;;;;41.67;31.80;;;;;;;;;;4950087;28;20482;-86
2021/04/30 23:33:34;;;;;;;44.17;34.60;;;;;;;;;;4942671;28;20099;-85